Terminal Aerodrome Forecast
Issued by NWS

Home | Current Version | Previous Version | Text Only | Print | Product List | Glossary On
Versions: 1 2 3 4 5 6 7 8 9 10 11 12 13 14 15 16 17 18 19 20 21 22 23
000
FTUS44 KHGX 270127 AAA
TAFSGR
TAF AMD
KSGR 270127Z 2701/2724 33008KT P6SM VCSH BKN025 BKN030
     FM270200 34007KT P6SM SCT025 BKN100
     FM270600 36008KT P6SM SCT015 OVC025
      TEMPO 2710/2713 OVC015
     FM271600 01006KT P6SM BKN025 BKN050
     FM271900 01008KT P6SM BKN050=

USA.gov is the U.S. government's official web portal to all federal, state and local government web resources and services.